createdAt,value
2023-02-14T00:01:58.258Z,5.29
2023-02-14T00:04:24.977Z,5.23
2023-02-14T00:06:51.364Z,5.69
2023-02-14T00:09:19.126Z,5.99
2023-02-14T00:11:45.843Z,5.32
2023-02-14T00:14:14.502Z,5.46
2023-02-14T00:16:41.147Z,5.58
2023-02-14T00:19:08.184Z,5.32
2023-02-14T00:21:35.972Z,5.64
2023-02-14T00:24:02.668Z,5.24
2023-02-14T00:26:29.101Z,5.08
2023-02-14T00:28:55.560Z,5.03
2023-02-14T00:31:23.543Z,4.46
2023-02-14T00:33:50.168Z,5.43
2023-02-14T00:36:19.644Z,5.23
2023-02-14T00:38:46.004Z,4.93
2023-02-14T00:41:12.562Z,4.85
2023-02-14T00:43:38.920Z,5.37
2023-02-14T00:46:05.301Z,5.47
2023-02-14T00:48:33.030Z,5.24
2023-02-14T00:50:59.707Z,5.45
2023-02-14T00:53:26.415Z,5.52
2023-02-14T00:55:52.799Z,5.72
2023-02-14T00:58:19.220Z,5.60
2023-02-14T01:00:45.639Z,5.31
2023-02-14T01:03:12.089Z,5.71
2023-02-14T01:05:39.868Z,5.65
2023-02-14T01:08:06.280Z,5.66
2023-02-14T01:10:32.801Z,5.75
2023-02-14T01:12:59.616Z,5.71
2023-02-14T01:15:26.099Z,5.63
2023-02-14T01:17:52.529Z,5.47
2023-02-14T01:20:18.987Z,5.76
2023-02-14T01:22:46.663Z,5.74
2023-02-14T01:25:13.084Z,5.74
2023-02-14T01:27:39.482Z,5.61
2023-02-14T01:30:07.537Z,5.78
2023-02-14T01:32:34.294Z,5.68
2023-02-14T01:35:01.026Z,5.69
2023-02-14T01:37:27.628Z,5.66
2023-02-14T01:39:55.340Z,5.62
2023-02-14T01:42:21.955Z,5.60
2023-02-14T01:45:03.707Z,5.83
2023-02-14T01:47:34.615Z,5.73
2023-02-14T01:50:05.016Z,5.66
2023-02-14T01:52:34.830Z,5.72
2023-02-14T01:55:06.869Z,5.73
2023-02-14T01:57:36.674Z,5.25
2023-02-14T02:00:04.788Z,5.39
2023-02-14T02:02:31.325Z,5.56
2023-02-14T02:04:58.025Z,5.61
2023-02-14T02:07:27.373Z,5.72
2023-02-14T02:09:55.654Z,5.42
2023-02-14T02:12:23.952Z,5.15
2023-02-14T02:14:54.003Z,5.26
2023-02-14T02:17:28.426Z,5.32
2023-02-14T02:20:25.852Z,5.21
2023-02-14T02:23:18.361Z,5.35
2023-02-14T02:26:08.566Z,5.02
2023-02-14T02:29:10.272Z,5.09
2023-02-14T02:32:02.292Z,5.11
2023-02-14T02:35:14.328Z,5.27
2023-02-14T02:37:50.010Z,5.31
2023-02-14T02:40:28.664Z,5.13
2023-02-14T02:43:06.750Z,5.35
2023-02-14T02:45:44.743Z,5.27
2023-02-14T02:48:20.655Z,5.31
2023-02-14T02:50:56.012Z,5.49
2023-02-14T02:53:29.570Z,5.41
2023-02-14T02:56:01.605Z,5.35
2023-02-14T02:58:32.912Z,5.36
2023-02-14T03:01:02.448Z,5.43
2023-02-14T03:03:32.360Z,5.37
2023-02-14T03:06:00.661Z,5.32
2023-02-14T03:08:27.030Z,5.21
2023-02-14T03:10:54.244Z,5.08
2023-02-14T03:14:00.684Z,5.18
2023-02-14T03:16:46.122Z,5.15
2023-02-14T03:19:30.974Z,5.09
2023-02-14T03:22:04.375Z,5.14
2023-02-14T03:24:41.600Z,5.03
2023-02-14T03:27:16.534Z,4.93
2023-02-14T03:29:53.754Z,4.76
2023-02-14T03:32:29.300Z,4.94
2023-02-14T03:35:05.125Z,4.74
2023-02-14T03:37:39.213Z,4.46
2023-02-14T03:40:10.419Z,4.85
2023-02-14T03:42:40.244Z,4.78
2023-02-14T03:45:12.235Z,4.86
2023-02-14T03:47:41.096Z,4.74
2023-02-14T03:50:13.025Z,4.65
2023-02-14T03:52:43.583Z,4.07
2023-02-14T03:55:11.162Z,4.38
2023-02-14T03:57:46.588Z,3.77
2023-02-14T04:00:14.618Z,3.95
2023-02-14T04:02:44.545Z,3.54
2023-02-14T04:05:15.750Z,3.71
2023-02-14T04:07:49.324Z,3.96
2023-02-14T04:10:16.604Z,4.26
2023-02-14T04:12:43.474Z,4.09
2023-02-14T04:15:11.104Z,4.41
2023-02-14T04:17:37.695Z,4.49
2023-02-14T04:20:05.260Z,2.96
2023-02-14T04:22:31.648Z,3.42
2023-02-14T04:24:59.332Z,3.16
2023-02-14T04:27:25.671Z,2.65
2023-02-14T04:29:52.066Z,2.29
2023-02-14T04:32:20.288Z,2.45
2023-02-14T04:34:47.221Z,2.34
2023-02-14T04:37:15.587Z,2.34
2023-02-14T04:39:42.105Z,2.93
2023-02-14T04:42:10.021Z,2.58
2023-02-14T04:44:36.436Z,2.54
2023-02-14T04:47:02.857Z,2.37
2023-02-14T04:49:29.316Z,2.41
2023-02-14T04:51:55.722Z,1.56
2023-02-14T04:54:22.656Z,2.39
2023-02-14T04:56:49.536Z,2.60
2023-02-14T04:59:17.810Z,2.85
2023-02-14T05:01:44.233Z,2.70
2023-02-14T05:04:10.769Z,2.50
2023-02-14T05:06:37.123Z,2.60
2023-02-14T05:09:03.748Z,2.78
2023-02-14T05:11:30.185Z,2.46
2023-02-14T05:13:56.675Z,1.96
2023-02-14T05:16:24.678Z,2.24
2023-02-14T05:18:51.174Z,1.81
2023-02-14T05:21:17.735Z,2.16
2023-02-14T05:23:44.486Z,2.14
2023-02-14T05:26:10.898Z,2.21
2023-02-14T05:28:37.239Z,1.99
2023-02-14T05:31:04.215Z,1.84
2023-02-14T05:33:32.093Z,1.90
2023-02-14T05:35:58.831Z,2.25
2023-02-14T05:38:25.293Z,2.47
2023-02-14T05:40:51.672Z,2.58
2023-02-14T05:43:18.034Z,1.67
2023-02-14T05:45:44.478Z,1.58
2023-02-14T05:48:10.864Z,2.41
2023-02-14T05:50:38.742Z,2.46
2023-02-14T05:53:05.155Z,2.02
2023-02-14T05:55:31.523Z,1.86
2023-02-14T05:57:57.934Z,2.16
2023-02-14T06:00:24.903Z,2.14
2023-02-14T06:02:51.286Z,2.49
2023-02-14T06:05:17.922Z,2.44
2023-02-14T06:07:45.926Z,2.34
2023-02-14T06:10:12.282Z,2.61
2023-02-14T06:12:38.620Z,2.62
2023-02-14T06:15:06.176Z,2.55
2023-02-14T06:17:32.598Z,1.78
2023-02-14T06:19:58.974Z,1.35
2023-02-14T06:22:25.419Z,2.24
2023-02-14T06:24:53.135Z,1.98
2023-02-14T06:27:19.559Z,2.70
2023-02-14T06:29:46.119Z,3.23
2023-02-14T06:32:12.594Z,2.87
2023-02-14T06:34:39.154Z,3.32
2023-02-14T06:37:05.555Z,3.40
2023-02-14T06:39:31.925Z,3.39
2023-02-14T06:41:59.636Z,2.21
2023-02-14T06:44:26.057Z,2.64
2023-02-14T06:46:52.674Z,2.79
2023-02-14T06:49:19.120Z,2.86
2023-02-14T06:51:45.777Z,2.77
2023-02-14T06:54:12.126Z,2.33
2023-02-14T06:56:38.533Z,1.94
2023-02-14T06:59:06.247Z,2.32
2023-02-14T07:01:32.942Z,2.61
2023-02-14T07:03:59.582Z,2.11
2023-02-14T07:06:26.022Z,1.73
2023-02-14T07:08:52.434Z,2.57
2023-02-14T07:11:18.814Z,2.48
2023-02-14T07:13:45.287Z,1.70
2023-02-14T07:16:13.035Z,1.88
2023-02-14T07:18:39.457Z,2.24
2023-02-14T07:21:06.058Z,2.21
2023-02-14T07:23:32.467Z,1.85
2023-02-14T07:25:58.877Z,2.19
2023-02-14T07:28:25.298Z,3.03
2023-02-14T07:30:51.809Z,2.72
2023-02-14T07:33:19.608Z,2.15
2023-02-14T07:35:46.189Z,1.86
2023-02-14T07:38:12.542Z,2.73
2023-02-14T07:40:38.917Z,2.19
2023-02-14T07:43:05.304Z,2.29
2023-02-14T07:45:31.670Z,2.78
2023-02-14T07:47:58.059Z,3.00
2023-02-14T07:50:25.844Z,2.91
2023-02-14T07:52:52.215Z,2.84
2023-02-14T07:55:18.772Z,3.00
2023-02-14T07:57:47.421Z,2.87
2023-02-14T08:00:14.400Z,3.19
2023-02-14T08:02:40.823Z,2.74
2023-02-14T08:05:07.746Z,3.13
2023-02-14T08:07:35.789Z,3.74
2023-02-14T08:10:02.192Z,3.89
2023-02-14T08:12:28.754Z,3.82
2023-02-14T08:14:55.098Z,4.20
2023-02-14T08:17:21.644Z,4.40
2023-02-14T08:19:48.063Z,4.33
2023-02-14T08:22:14.444Z,4.89
2023-02-14T08:24:42.189Z,4.81
2023-02-14T08:27:08.553Z,4.61
2023-02-14T08:29:35.093Z,4.92
2023-02-14T08:32:01.569Z,5.04
2023-02-14T08:34:28.026Z,4.72
2023-02-14T08:36:54.623Z,4.95
2023-02-14T08:39:21.035Z,5.27
2023-02-14T08:41:49.088Z,5.42
2023-02-14T08:44:15.561Z,5.49
2023-02-14T08:46:42.069Z,5.59
2023-02-14T08:49:09.733Z,5.62
2023-02-14T08:51:36.118Z,5.72
2023-02-14T08:54:02.584Z,5.66
2023-02-14T08:56:28.976Z,5.41
2023-02-14T08:58:56.663Z,5.85
2023-02-14T09:01:23.159Z,5.86
2023-02-14T09:03:49.747Z,6.07
2023-02-14T09:06:16.974Z,6.31
2023-02-14T09:08:44.161Z,6.17
2023-02-14T09:11:13.842Z,6.17
2023-02-14T09:13:40.669Z,6.12
2023-02-14T09:16:10.653Z,6.35
2023-02-14T09:18:37.496Z,6.33
2023-02-14T09:21:07.718Z,6.70
2023-02-14T09:23:34.162Z,6.97
2023-02-14T09:26:01.327Z,6.63
2023-02-14T09:28:28.077Z,6.64
2023-02-14T09:30:54.687Z,6.75
2023-02-14T09:33:22.697Z,7.01
2023-02-14T09:35:49.133Z,6.91
2023-02-14T09:38:15.498Z,7.18
2023-02-14T09:40:42.247Z,7.37
2023-02-14T09:43:16.323Z,7.23
2023-02-14T09:45:50.879Z,7.31
2023-02-14T09:48:28.239Z,7.57
2023-02-14T09:50:57.789Z,7.76
2023-02-14T09:53:27.678Z,7.63
2023-02-14T09:56:01.078Z,7.73
2023-02-14T09:58:33.153Z,7.95
2023-02-14T10:01:05.045Z,7.56
2023-02-14T10:03:51.428Z,7.50
2023-02-14T10:06:33.959Z,7.92
2023-02-14T10:09:09.989Z,7.81
2023-02-14T10:11:37.170Z,8.01
2023-02-14T10:14:08.486Z,8.02
2023-02-14T10:16:39.933Z,8.05
2023-02-14T10:19:17.350Z,8.42
2023-02-14T10:21:48.054Z,8.37
2023-02-14T10:24:20.813Z,8.69
2023-02-14T10:26:49.365Z,8.16
2023-02-14T10:29:17.952Z,8.35
2023-02-14T10:31:50.859Z,8.73
2023-02-14T10:34:25.613Z,8.89
2023-02-14T10:37:13.356Z,8.59
2023-02-14T10:39:51.929Z,8.60
2023-02-14T10:42:25.876Z,8.70
2023-02-14T10:44:58.494Z,8.71
2023-02-14T10:47:39.202Z,8.92
2023-02-14T10:50:16.532Z,8.73
2023-02-14T10:52:52.836Z,8.95
2023-02-14T10:55:32.978Z,8.76
2023-02-14T10:58:03.965Z,8.67
2023-02-14T11:00:34.084Z,8.61
2023-02-14T11:03:06.019Z,9.34
2023-02-14T11:05:36.602Z,9.04
2023-02-14T11:08:14.016Z,9.24
2023-02-14T11:10:40.506Z,9.63
2023-02-14T11:13:27.159Z,9.56
2023-02-14T11:15:53.765Z,9.34
2023-02-14T11:18:22.685Z,9.72
2023-02-14T11:21:01.852Z,9.79
2023-02-14T11:23:33.059Z,9.86
2023-02-14T11:25:59.869Z,9.90
2023-02-14T11:28:26.876Z,9.71
2023-02-14T11:30:53.711Z,9.76
2023-02-14T11:33:32.588Z,9.94
2023-02-14T11:36:01.813Z,10.11
2023-02-14T11:38:31.544Z,10.35
2023-02-14T11:40:59.726Z,10.16
2023-02-14T11:43:32.438Z,10.10
2023-02-14T11:46:15.125Z,10.26
2023-02-14T11:48:56.158Z,10.31
2023-02-14T11:51:30.478Z,10.37
2023-02-14T11:54:00.725Z,10.31
2023-02-14T11:56:45.903Z,10.34
2023-02-14T11:59:22.595Z,10.70
2023-02-14T12:01:49.030Z,10.57
2023-02-14T12:04:19.596Z,10.54
2023-02-14T12:06:47.618Z,10.90
2023-02-14T12:09:26.232Z,10.96
2023-02-14T12:11:54.806Z,10.86
2023-02-14T12:14:23.447Z,11.27
2023-02-14T12:16:56.264Z,11.23
2023-02-14T12:19:30.406Z,10.96
2023-02-14T12:22:02.745Z,11.03
2023-02-14T12:24:33.744Z,10.96
2023-02-14T12:27:11.216Z,11.42
2023-02-14T12:29:41.637Z,10.82
2023-02-14T12:32:16.338Z,10.96
2023-02-14T12:34:42.788Z,11.28
2023-02-14T12:37:33.828Z,10.90
2023-02-14T12:40:11.793Z,11.34
2023-02-14T12:42:53.320Z,11.58
2023-02-14T12:45:26.060Z,11.17
2023-02-14T12:48:03.849Z,11.27
2023-02-14T12:50:38.257Z,11.20
2023-02-14T12:53:34.313Z,11.50
2023-02-14T12:56:09.576Z,11.44
2023-02-14T12:58:54.308Z,11.43
2023-02-14T13:01:38.747Z,11.67
2023-02-14T13:04:48.779Z,11.47
2023-02-14T13:07:26.490Z,11.55
2023-02-14T13:10:02.204Z,11.62
2023-02-14T13:12:36.273Z,11.87
2023-02-14T13:15:15.229Z,11.77
2023-02-14T13:17:46.311Z,11.89
2023-02-14T13:20:31.968Z,11.91
2023-02-14T13:23:04.164Z,11.89
2023-02-14T13:25:36.036Z,12.90
2023-02-14T13:28:05.240Z,12.36
2023-02-14T13:30:34.969Z,12.15
2023-02-14T13:33:03.865Z,12.15
2023-02-14T13:35:31.383Z,12.14
2023-02-14T13:38:01.937Z,11.91
2023-02-14T13:40:29.768Z,11.97
2023-02-14T13:42:59.475Z,12.04
2023-02-14T13:46:02.495Z,12.26
2023-02-14T13:48:29.358Z,12.20
2023-02-14T13:50:58.246Z,12.05
2023-02-14T13:53:30.906Z,12.39
2023-02-14T13:55:57.569Z,11.72
2023-02-14T13:58:25.705Z,11.48
2023-02-14T14:00:53.308Z,11.46
2023-02-14T14:03:54.007Z,12.04
2023-02-14T14:06:20.603Z,12.37
2023-02-14T14:08:49.772Z,12.25
2023-02-14T14:11:49.613Z,11.99
2023-02-14T14:14:44.192Z,11.81
2023-02-14T14:17:22.812Z,12.15
2023-02-14T14:19:49.344Z,12.40
2023-02-14T14:22:16.257Z,11.58
2023-02-14T14:24:59.848Z,12.12
2023-02-14T14:27:31.757Z,12.22
2023-02-14T14:30:01.286Z,12.24
2023-02-14T14:32:29.761Z,11.61
2023-02-14T14:34:58.333Z,11.85
2023-02-14T14:37:26.576Z,12.09
2023-02-14T14:39:55.213Z,11.81
2023-02-14T14:42:24.998Z,11.83
2023-02-14T14:44:53.736Z,11.81
2023-02-14T14:47:24.160Z,11.43
2023-02-14T14:49:52.160Z,11.48
2023-02-14T14:52:32.796Z,11.54
2023-02-14T14:55:00.603Z,11.24
2023-02-14T14:57:27.031Z,11.32
2023-02-14T15:00:17.256Z,11.34
2023-02-14T15:02:57.976Z,11.26
2023-02-14T15:05:26.882Z,10.89
2023-02-14T15:07:53.561Z,10.83
2023-02-14T15:10:24.682Z,10.83
2023-02-14T15:12:52.820Z,10.93
2023-02-14T15:15:19.506Z,11.63
2023-02-14T15:17:46.502Z,11.31
2023-02-14T15:20:18.705Z,11.25
2023-02-14T15:22:47.202Z,11.27
2023-02-14T15:25:18.016Z,10.77
2023-02-14T15:27:44.893Z,11.06
2023-02-14T15:30:23.357Z,10.69
2023-02-14T15:32:51.784Z,10.59
2023-02-14T15:35:24.822Z,10.60
2023-02-14T15:37:52.686Z,10.59
2023-02-14T15:40:23.166Z,10.42
2023-02-14T15:42:50.786Z,10.47
2023-02-14T15:45:21.202Z,10.29
2023-02-14T15:47:50.702Z,10.26
2023-02-14T15:50:21.148Z,9.95
2023-02-14T15:52:48.233Z,10.23
2023-02-14T15:55:18.317Z,10.03
2023-02-14T15:57:47.757Z,9.88
2023-02-14T16:00:17.399Z,9.79
2023-02-14T16:02:44.234Z,9.82
2023-02-14T16:05:17.491Z,9.52
2023-02-14T16:07:57.247Z,9.56
2023-02-14T16:10:25.073Z,9.45
2023-02-14T16:12:57.881Z,9.19
2023-02-14T16:15:25.507Z,9.41
2023-02-14T16:17:52.059Z,9.44
2023-02-14T16:20:20.619Z,9.22
2023-02-14T16:22:47.019Z,9.11
2023-02-14T16:25:15.243Z,9.20
2023-02-14T16:27:42.017Z,9.30
2023-02-14T16:30:16.074Z,9.04
2023-02-14T16:32:42.824Z,8.74
2023-02-14T16:35:16.008Z,8.90
2023-02-14T16:37:45.622Z,8.93
2023-02-14T16:40:15.247Z,8.69
2023-02-14T16:42:42.554Z,9.18
2023-02-14T16:45:14.714Z,8.85
2023-02-14T16:47:41.088Z,8.26
2023-02-14T16:50:08.064Z,8.84
2023-02-14T16:52:35.088Z,8.27
2023-02-14T16:55:02.536Z,7.83
2023-02-14T16:57:34.176Z,8.48
2023-02-14T17:00:00.641Z,8.41
2023-02-14T17:02:27.630Z,8.72
2023-02-14T17:04:54.238Z,8.25
2023-02-14T17:07:21.052Z,8.15
2023-02-14T17:09:52.474Z,7.81
2023-02-14T17:12:23.710Z,8.04
2023-02-14T17:14:54.134Z,7.74
2023-02-14T17:17:20.779Z,7.77
2023-02-14T17:19:47.371Z,8.28
2023-02-14T17:22:14.583Z,7.81
2023-02-14T17:24:41.071Z,7.86
2023-02-14T17:27:07.466Z,7.67
2023-02-14T17:29:34.018Z,7.83
2023-02-14T17:32:01.867Z,7.77
2023-02-14T17:34:31.141Z,7.96
2023-02-14T17:36:57.678Z,7.61
2023-02-14T17:39:24.098Z,7.77
2023-02-14T17:41:50.447Z,7.26
2023-02-14T17:44:17.046Z,7.44
2023-02-14T17:46:43.530Z,7.25
2023-02-14T17:49:11.287Z,7.56
2023-02-14T17:51:37.793Z,7.80
2023-02-14T17:54:04.228Z,8.18
2023-02-14T17:56:30.648Z,7.98
2023-02-14T17:58:57.053Z,7.84
2023-02-14T18:01:25.841Z,7.35
2023-02-14T18:03:53.786Z,7.07
2023-02-14T18:06:21.629Z,7.61
2023-02-14T18:08:49.946Z,7.08
2023-02-14T18:11:18.240Z,7.63
2023-02-14T18:13:44.695Z,6.94
2023-02-14T18:16:14.223Z,6.35
2023-02-14T18:18:41.377Z,6.66
2023-02-14T18:21:10.032Z,7.37
2023-02-14T18:23:38.160Z,6.49
2023-02-14T18:26:07.940Z,6.40
2023-02-14T18:28:35.614Z,6.42
2023-02-14T18:31:03.776Z,6.61
2023-02-14T18:33:30.399Z,6.63
2023-02-14T18:35:56.863Z,6.66
2023-02-14T18:38:23.242Z,7.24
2023-02-14T18:40:50.927Z,7.23
2023-02-14T18:43:17.296Z,6.99
2023-02-14T18:45:43.687Z,6.25
2023-02-14T18:48:10.109Z,6.00
2023-02-14T18:50:36.566Z,6.34
2023-02-14T18:53:02.948Z,6.05
2023-02-14T18:55:29.338Z,6.18
2023-02-14T18:57:57.012Z,5.97
2023-02-14T19:00:24.316Z,6.15
2023-02-14T19:02:50.687Z,6.23
2023-02-14T19:05:17.147Z,5.65
2023-02-14T19:07:43.500Z,6.00
2023-02-14T19:10:10.803Z,6.07
2023-02-14T19:12:37.231Z,6.29
2023-02-14T19:15:06.127Z,5.71
2023-02-14T19:17:32.645Z,5.66
2023-02-14T19:19:59.104Z,5.45
2023-02-14T19:22:25.517Z,5.83
2023-02-14T19:24:52.020Z,6.02
2023-02-14T19:27:18.413Z,5.49
2023-02-14T19:29:44.790Z,5.90
2023-02-14T19:32:12.605Z,5.52
2023-02-14T19:34:39.038Z,5.99
2023-02-14T19:37:05.422Z,6.14
2023-02-14T19:39:31.969Z,5.66
2023-02-14T19:41:59.704Z,5.16
2023-02-14T19:44:26.087Z,5.15
2023-02-14T19:46:52.773Z,5.22
2023-02-14T19:49:21.169Z,5.52
2023-02-14T19:51:48.585Z,5.40
2023-02-14T19:54:14.969Z,5.78
2023-02-14T19:56:43.902Z,5.49
2023-02-14T19:59:11.894Z,5.27
2023-02-14T20:01:40.144Z,5.68
2023-02-14T20:04:09.146Z,5.85
2023-02-14T20:06:37.816Z,4.74
2023-02-14T20:09:04.843Z,4.75
2023-02-14T20:11:33.338Z,5.16
2023-02-14T20:14:00.215Z,5.15
2023-02-14T20:16:28.813Z,5.40
2023-02-14T20:18:55.814Z,5.60
2023-02-14T20:21:24.022Z,4.82
2023-02-14T20:23:51.961Z,4.99
2023-02-14T20:26:18.641Z,5.40
2023-02-14T20:28:45.194Z,5.14
2023-02-14T20:31:14.438Z,5.91
2023-02-14T20:33:41.434Z,5.53
2023-02-14T20:36:08.508Z,5.32
2023-02-14T20:38:35.130Z,6.11
2023-02-14T20:41:04.529Z,6.00
2023-02-14T20:43:30.910Z,5.58
2023-02-14T20:45:58.585Z,5.53
2023-02-14T20:48:25.006Z,5.02
2023-02-14T20:50:51.420Z,5.08
2023-02-14T20:53:17.808Z,5.51
2023-02-14T20:55:44.200Z,5.54
2023-02-14T20:58:11.875Z,5.61
2023-02-14T21:00:38.257Z,5.90
2023-02-14T21:03:05.335Z,5.73
2023-02-14T21:05:31.759Z,5.94
2023-02-14T21:07:58.142Z,5.12
2023-02-14T21:10:24.698Z,5.64
2023-02-14T21:12:51.066Z,5.56
2023-02-14T21:15:19.309Z,4.83
2023-02-14T21:17:45.677Z,5.09
2023-02-14T21:20:12.793Z,4.44
2023-02-14T21:22:39.463Z,4.26
2023-02-14T21:25:06.381Z,4.79
2023-02-14T21:27:33.870Z,4.52
2023-02-14T21:30:00.261Z,4.15
2023-02-14T21:32:28.029Z,4.55
2023-02-14T21:34:54.455Z,4.52
2023-02-14T21:37:20.853Z,3.92
2023-02-14T21:39:47.231Z,4.67
2023-02-14T21:42:13.640Z,4.91
2023-02-14T21:44:40.010Z,4.97
2023-02-14T21:47:06.440Z,3.96
2023-02-14T21:49:34.139Z,5.03
2023-02-14T21:52:00.542Z,4.21
2023-02-14T21:54:27.056Z,3.87
2023-02-14T21:56:53.448Z,4.49
2023-02-14T21:59:19.828Z,4.73
2023-02-14T22:01:46.260Z,5.25
2023-02-14T22:04:13.179Z,5.34
2023-02-14T22:06:41.973Z,5.60
2023-02-14T22:09:09.506Z,5.29
2023-02-14T22:11:36.365Z,5.75
2023-02-14T22:14:02.838Z,5.66
2023-02-14T22:16:29.244Z,5.54
2023-02-14T22:18:55.706Z,5.26
2023-02-14T22:21:24.073Z,5.16
2023-02-14T22:23:52.145Z,5.53
2023-02-14T22:26:20.979Z,5.76
2023-02-14T22:28:48.910Z,5.28
2023-02-14T22:31:17.531Z,5.25
2023-02-14T22:33:44.210Z,5.25
2023-02-14T22:36:11.143Z,4.95
2023-02-14T22:38:38.699Z,5.31
2023-02-14T22:41:08.455Z,5.52
2023-02-14T22:43:34.990Z,5.49
2023-02-14T22:46:03.381Z,4.99
2023-02-14T22:48:30.635Z,4.51
2023-02-14T22:50:56.993Z,4.81
2023-02-14T22:53:23.372Z,5.24
2023-02-14T22:55:49.716Z,4.96
2023-02-14T22:58:17.391Z,4.84
2023-02-14T23:00:43.753Z,4.46
2023-02-14T23:03:10.146Z,5.16
2023-02-14T23:05:36.527Z,5.15
2023-02-14T23:08:03.022Z,4.79
2023-02-14T23:10:29.384Z,5.32
2023-02-14T23:12:55.735Z,4.98
2023-02-14T23:15:23.716Z,5.35
2023-02-14T23:17:50.088Z,5.25
2023-02-14T23:20:16.781Z,5.38
2023-02-14T23:22:43.187Z,4.95
2023-02-14T23:25:11.555Z,4.78
2023-02-14T23:27:40.220Z,5.18
2023-02-14T23:30:08.690Z,4.93
2023-02-14T23:32:36.716Z,4.72
2023-02-14T23:35:03.595Z,5.18
2023-02-14T23:37:30.165Z,5.12
2023-02-14T23:39:56.526Z,5.38
2023-02-14T23:42:22.934Z,5.25
2023-02-14T23:44:49.340Z,5.20
2023-02-14T23:47:16.199Z,5.06
2023-02-14T23:49:43.920Z,5.08
2023-02-14T23:52:12.918Z,5.09
2023-02-14T23:54:39.682Z,4.13
2023-02-14T23:57:07.633Z,4.69
2023-02-14T23:59:34.109Z,4.47
